Airfield :
LOGIN :

Register | Disclaimer

   EN    FR    IT 

 










Legend :    VFR   Marginal VFR   IFR   Intensive IFR   Very Intensive IFR
Visi :
Ceiling :
>= 8 km
>= 3000ft
5 to 8 km
1000 to 3000 ft
1500m to 5 km
500 to 1000 ft
800 to 1500m
200 to 500 ft
< 800m
< 200 ft
Symbols :   Thunderstorms  Fog  Heavy snow  Heavy precipitations  Wind > 20 kt
SIGMETs :     Misc.  Thunderstorms  Icing  Turbulence  Mountain Waves  Volcanic Ashes






- Airport Elevation : 33 ft
- IATA code : PLQ


EYPA - Palanga

CURRENT METAR :
  • 220320Z 29007KT 240V330 9999 SCT013 BKN036 06/04 Q1014

EXPIRED METARs :
  • 220250Z AUTO 29006KT 260V350 9999 SCT012/// BKN037/// BKN120/// 05/04 Q1014
  • 220220Z AUTO 29007KT 260V340 9999 BKN016/// OVC034/// 06/04 Q1014
  • 220150Z AUTO 29006G16KT 260V320 9999 BKN015/// OVC032/// 06/04 Q1015
  • 220120Z AUTO 29007KT 240V330 9999 OVC015/// 06/04 Q1015
  • 220050Z AUTO 29007KT 260V320 9999 OVC015/// 06/04 Q1016

TAF TAF EYPA
Valid from the 22 at 00:00 until the 23 at 00:00 UTC


212307Z 2200/2224 30012G22KT 9000 BKN020
TEMPO 2200/2206 SCT005 BKN010
BECMG 2206/2207 SCT030



MET'MAP, your aeronautical weather chart ! - Copyright ORBIFLY December 2007 - Disclaimer

ORBIFLY MET'MAP TEAM :

Programming & Development : Alexandra Zaïnal
Concept & original design : Baudouin d'Aumeries
Assistance for programming : Marc-Olivier Méhu
Technical & hardware support : Manuel Goepfert

Contact : metmap@orbifly.com




SOURCES & CREDITS :

   NOAA